Time;durP1;ratioP1;P1;durP2;ratioP2;P2;SDS_P1;SDS_P2;PMS_P1;PMS_P2;Temp;Humidity;BMP_temperature;BMP_pressure;BME280_temperature;BME280_humidity;BME280_pressure;Samples;Min_cycle;Max_cycle;Signal;HPM_P1;HPM_P2
2023/05/05 00:00:31;;;;;;;9.93;7.90;;;;;;;16.57;77.60;100440.50;8391548;28;20119;-59
2023/05/05 00:04:31;;;;;;;12.75;7.70;;;;;;;16.57;78.18;100443.22;8392874;28;20059;-59
2023/05/05 00:08:32;;;;;;;10.23;8.20;;;;;;;16.47;80.86;100448.09;8390653;28;20503;-59
2023/05/05 00:12:32;;;;;;;11.18;8.65;;;;;;;16.07;82.56;100445.53;8391930;28;20033;-59
2023/05/05 00:16:33;;;;;;;11.40;8.85;;;;;;;16.13;82.15;100444.84;8392322;28;20032;-59
2023/05/05 00:20:33;;;;;;;12.27;9.07;;;;;;;16.11;82.92;100425.91;8391705;28;20502;-57
2023/05/05 00:24:33;;;;;;;12.48;8.43;;;;;;;16.20;82.03;100434.91;8392298;28;20072;-57
2023/05/05 00:28:34;;;;;;;12.18;8.82;;;;;;;16.35;82.80;100435.84;8391205;28;20402;-57
2023/05/05 00:32:35;;;;;;;8.40;7.53;;;;;;;16.34;81.20;100443.16;8391173;28;20036;-57
2023/05/05 00:36:35;;;;;;;12.30;8.82;;;;;;;16.15;84.67;100437.31;8392039;28;20063;-57
2023/05/05 00:40:36;;;;;;;13.23;8.48;;;;;;;15.71;86.13;100435.09;8390883;28;20029;-57
2023/05/05 00:44:40;;;;;;;11.20;8.73;;;;;;;15.88;85.39;100430.44;8391028;28;20041;-57
2023/05/05 00:48:40;;;;;;;11.43;9.40;;;;;;;15.85;84.68;100430.78;8390922;28;20098;-57
2023/05/05 00:52:41;;;;;;;12.93;9.25;;;;;;;15.85;84.86;100435.41;8390399;28;20048;-57
2023/05/05 00:56:42;;;;;;;11.68;9.10;;;;;;;15.87;84.78;100431.47;8391317;28;20526;-57
2023/05/05 01:00:43;;;;;;;12.68;8.68;;;;;;;15.84;85.35;100433.69;8390698;28;20064;-57
2023/05/05 01:04:43;;;;;;;11.57;8.90;;;;;;;15.63;86.46;100426.97;8390885;28;20070;-57
2023/05/05 01:09:18;;;;;;;13.85;8.93;;;;;;;15.40;88.82;100436.88;8390828;28;20062;-57
2023/05/05 01:13:31;;;;;;;10.43;8.73;;;;;;;15.07;91.23;100431.63;8389173;28;20513;-58
2023/05/05 01:17:40;;;;;;;10.98;9.27;;;;;;;14.90;92.85;100441.69;8390514;28;20041;-57
2023/05/05 01:21:48;;;;;;;13.38;9.15;;;;;;;15.02;92.42;100448.50;8389705;28;20515;-57
2023/05/05 01:26:10;;;;;;;13.13;9.23;;;;;;;15.09;91.49;100437.75;8390539;28;20044;-57
2023/05/05 01:30:50;;;;;;;11.63;9.70;;;;;;;15.29;90.04;100445.41;8389801;28;20536;-57
2023/05/05 01:35:28;;;;;;;15.13;8.77;;;;;;;15.26;90.63;100444.88;8389388;28;20044;-58
2023/05/05 01:39:33;;;;;;;11.88;8.57;;;;;;;15.07;90.79;100439.81;8340958;28;20038;-57
2023/05/05 01:43:35;;;;;;;20.40;9.63;;;;;;;15.21;90.43;100450.84;8340280;28;20068;-57
2023/05/05 01:47:38;;;;;;;13.30;9.43;;;;;;;15.24;89.78;100453.25;8339860;28;20033;-57
2023/05/05 01:51:40;;;;;;;11.45;9.25;;;;;;;15.20;90.28;100457.34;8349929;28;20148;-57
2023/05/05 01:55:42;;;;;;;18.00;10.25;;;;;;;15.06;91.04;100460.72;8372433;28;20036;-57
2023/05/05 01:59:42;;;;;;;14.82;9.57;;;;;;;14.74;92.82;100471.63;8372389;28;20071;-57
2023/05/05 02:03:45;;;;;;;13.85;11.20;;;;;;;14.73;94.21;100469.06;8372648;28;20053;-57
2023/05/05 02:07:50;;;;;;;13.80;10.00;;;;;;;14.62;95.22;100475.69;8370185;28;20114;-57
2023/05/05 02:11:52;;;;;;;14.55;10.57;;;;;;;14.76;94.67;100469.56;8369473;28;20071;-58
2023/05/05 02:15:54;;;;;;;13.73;10.48;;;;;;;14.52;96.23;100468.69;8372884;28;20330;-57
2023/05/05 02:19:57;;;;;;;14.00;10.55;;;;;;;14.37;97.30;100475.78;8372417;28;20423;-57
2023/05/05 02:23:58;;;;;;;14.32;11.40;;;;;;;14.32;98.20;100476.28;8372595;28;20073;-58
2023/05/05 02:28:01;;;;;;;17.17;10.73;;;;;;;14.27;99.26;100484.06;8372673;28;20491;-57
2023/05/05 02:32:08;;;;;;;15.30;10.63;;;;;;;14.49;98.33;100478.00;8372541;28;20028;-57
2023/05/05 02:36:28;;;;;;;12.02;10.25;;;;;;;14.49;98.14;100478.00;8372760;28;20391;-57
2023/05/05 02:40:34;;;;;;;18.23;11.80;;;;;;;14.70;97.62;100494.72;8371752;28;20405;-57
2023/05/05 02:44:40;;;;;;;11.70;10.25;;;;;;;14.68;97.31;100488.63;8371981;28;20448;-57
2023/05/05 02:48:41;;;;;;;11.20;10.00;;;;;;;14.77;96.64;100498.50;8372656;28;20037;-57
2023/05/05 02:52:43;;;;;;;13.50;10.20;;;;;;;15.05;96.14;100491.72;8372607;28;20047;-59
2023/05/05 02:56:49;;;;;;;15.25;10.00;;;;;;;15.02;95.67;100504.81;8371532;28;20040;-58
2023/05/05 03:01:28;;;;;;;12.47;9.73;;;;;;;14.42;97.69;100509.63;8372008;28;20107;-58
2023/05/05 03:05:40;;;;;;;19.08;11.05;;;;;;;14.21;100.00;100514.63;8373000;28;20279;-59
2023/05/05 03:09:50;;;;;;;13.23;10.93;;;;;;;13.88;100.00;100503.75;8377903;28;20044;-58
2023/05/05 03:13:59;;;;;;;14.13;11.50;;;;;;;13.99;100.00;100512.47;8377993;28;20132;-59
2023/05/05 03:18:01;;;;;;;14.18;10.68;;;;;;;13.93;100.00;100506.84;8378341;28;20045;-58
2023/05/05 03:22:03;;;;;;;14.30;10.98;;;;;;;13.75;100.00;100504.19;8375258;28;20044;-58
2023/05/05 03:26:05;;;;;;;16.48;11.05;;;;;;;13.95;100.00;100511.09;8377889;28;20412;-58
2023/05/05 03:30:11;;;;;;;18.23;12.77;;;;;;;13.88;100.00;100504.63;8377039;28;20047;-59
2023/05/05 03:34:19;;;;;;;16.38;11.27;;;;;;;13.95;100.00;100510.25;8393853;28;20124;-59
2023/05/05 03:38:22;;;;;;;15.45;11.73;;;;;;;13.71;100.00;100516.41;8393664;28;20036;-59
2023/05/05 03:42:22;;;;;;;16.42;12.60;;;;;;;14.00;100.00;100511.44;8377159;28;20040;-59
2023/05/05 03:46:23;;;;;;;18.08;12.50;;;;;;;14.31;100.00;100523.53;8377562;28;20033;-58
2023/05/05 03:50:23;;;;;;;17.98;11.93;;;;;;;14.15;100.00;100517.16;8376847;28;20414;-59
2023/05/05 03:54:24;;;;;;;13.15;10.50;;;;;;;14.49;100.00;100507.09;8376505;28;20530;-59
2023/05/05 03:58:25;;;;;;;15.73;10.73;;;;;;;14.50;100.00;100515.09;8375316;28;20044;-59
2023/05/05 04:02:26;;;;;;;13.90;11.80;;;;;;;15.07;100.00;100527.78;8375675;28;20048;-59
2023/05/05 04:06:26;;;;;;;16.35;10.90;;;;;;;15.23;100.00;100533.25;8351214;28;20043;-58
2023/05/05 04:10:28;;;;;;;17.65;11.15;;;;;;;15.48;100.00;100532.25;8380288;28;20101;-59
2023/05/05 04:14:28;;;;;;;13.20;10.13;;;;;;;15.50;100.00;100535.63;8386776;28;20106;-59
2023/05/05 04:18:29;;;;;;;14.85;10.45;;;;;;;15.60;100.00;100538.19;8360307;28;20037;-59
2023/05/05 04:22:30;;;;;;;14.02;10.80;;;;;;;15.47;100.00;100541.44;8375259;28;20388;-59
2023/05/05 04:26:31;;;;;;;12.60;10.18;;;;;;;15.68;100.00;100538.19;8371304;28;20057;-59
2023/05/05 04:30:32;;;;;;;17.63;10.23;;;;;;;15.70;100.00;100547.91;8365160;28;20037;-59
2023/05/05 04:34:32;;;;;;;16.25;10.60;;;;;;;15.69;100.00;100546.19;8366181;28;20033;-59
2023/05/05 04:38:33;;;;;;;19.48;11.98;;;;;;;15.73;100.00;100550.28;8375026;28;20458;-59
2023/05/05 04:42:35;;;;;;;22.63;11.38;;;;;;;15.79;100.00;100545.16;8351766;28;20044;-59
2023/05/05 04:46:37;;;;;;;14.32;10.07;;;;;;;15.57;99.29;100554.88;8343011;28;20415;-59
2023/05/05 04:50:37;;;;;;;12.45;9.70;;;;;;;14.78;100.00;100554.63;8343769;28;20041;-59
2023/05/05 04:54:38;;;;;;;15.32;10.65;;;;;;;14.14;100.00;100559.78;8377609;28;20498;-59
2023/05/05 04:58:38;;;;;;;17.90;11.95;;;;;;;14.23;100.00;100558.84;8366202;28;20057;-58
2023/05/05 05:02:40;;;;;;;15.63;11.15;;;;;;;14.19;100.00;100557.44;8360203;28;20052;-58
2023/05/05 05:06:40;;;;;;;18.17;11.93;;;;;;;14.49;100.00;100565.06;8391354;28;20044;-58
2023/05/05 05:10:42;;;;;;;16.40;11.55;;;;;;;14.73;100.00;100567.88;8345764;28;20048;-58
2023/05/05 05:14:42;;;;;;;17.17;11.55;;;;;;;14.92;100.00;100567.59;8422508;28;20518;-58
2023/05/05 05:18:43;;;;;;;16.35;11.90;;;;;;;15.02;100.00;100575.59;8409296;28;20068;-58
2023/05/05 05:22:45;;;;;;;18.25;11.60;;;;;;;15.23;100.00;100576.84;8343573;28;20595;-58
2023/05/05 05:26:50;;;;;;;14.32;11.60;;;;;;;15.28;100.00;100576.34;8369536;28;20114;-60
2023/05/05 05:30:51;;;;;;;19.27;12.25;;;;;;;15.48;100.00;100577.72;8372545;28;20040;-58
2023/05/05 05:34:52;;;;;;;17.27;10.85;;;;;;;15.56;99.29;100577.72;8372986;28;20072;-58
2023/05/05 05:38:52;;;;;;;14.13;11.45;;;;;;;15.69;98.18;100578.91;8371356;28;20325;-59
2023/05/05 05:42:53;;;;;;;19.45;12.05;;;;;;;15.76;98.20;100572.78;8385351;28;20461;-58
2023/05/05 05:46:54;;;;;;;19.80;11.65;;;;;;;16.04;96.09;100579.53;8333631;28;20422;-60
2023/05/05 05:50:55;;;;;;;21.95;11.52;;;;;;;16.05;96.60;100581.22;8324502;28;20048;-59
2023/05/05 05:54:56;;;;;;;22.80;11.48;;;;;;;16.16;97.41;100587.16;8363663;28;20057;-59
2023/05/05 05:58:57;;;;;;;23.00;11.80;;;;;;;16.18;97.32;100592.44;8365294;28;20055;-60
2023/05/05 06:02:58;;;;;;;21.20;12.13;;;;;;;16.23;99.34;100612.72;8369503;28;20461;-60
2023/05/05 06:07:02;;;;;;;33.95;12.88;;;;;;;16.56;97.99;100608.06;8372412;28;20045;-60
2023/05/05 06:11:03;;;;;;;31.65;12.18;;;;;;;16.79;96.05;100606.22;8372097;28;20087;-59
2023/05/05 06:15:04;;;;;;;28.92;12.60;;;;;;;17.05;95.85;100598.59;8359435;28;20040;-60
2023/05/05 06:19:08;;;;;;;22.05;11.52;;;;;;;17.37;95.50;100601.09;8351371;28;20076;-60
2023/05/05 06:23:09;;;;;;;19.00;12.43;;;;;;;17.92;94.64;100596.19;8362515;28;20044;-60
2023/05/05 06:27:14;;;;;;;15.32;10.98;;;;;;;18.34;91.17;100590.97;8373492;28;20033;-60
2023/05/05 06:31:14;;;;;;;19.08;11.40;;;;;;;18.63;88.97;100607.41;8368835;28;20043;-60
2023/05/05 06:35:15;;;;;;;13.95;10.02;;;;;;;18.76;89.81;100602.09;8338884;28;20038;-60
2023/05/05 06:39:15;;;;;;;14.20;10.07;;;;;;;19.13;86.70;100604.66;8355909;28;20045;-60
2023/05/05 06:43:16;;;;;;;16.02;10.10;;;;;;;19.31;85.32;100609.75;8374483;28;20037;-60
2023/05/05 06:47:22;;;;;;;13.50;11.00;;;;;;;19.52;84.10;100624.31;8370665;28;20052;-59
2023/05/05 06:51:23;;;;;;;14.30;10.43;;;;;;;19.64;84.02;100632.03;8375857;28;20330;-60
2023/05/05 06:55:24;;;;;;;14.13;10.52;;;;;;;19.89;83.45;100633.31;8376072;28;20518;-58
2023/05/05 06:59:25;;;;;;;17.98;10.90;;;;;;;19.87;82.64;100635.41;8373963;28;20041;-58
2023/05/05 07:03:26;;;;;;;16.02;11.50;;;;;;;19.76;83.12;100635.94;8338303;28;20038;-58
2023/05/05 07:07:27;;;;;;;19.45;11.30;;;;;;;19.83;84.02;100628.63;8341396;28;20041;-60
2023/05/05 07:11:27;;;;;;;17.65;12.20;;;;;;;19.87;83.64;100635.41;8339562;28;20087;-59
2023/05/05 07:15:28;;;;;;;18.00;13.02;;;;;;;19.91;83.34;100636.72;8342859;28;20033;-59
2023/05/05 07:19:28;;;;;;;19.38;13.10;;;;;;;19.93;83.74;100645.59;8342646;28;20076;-58
2023/05/05 07:23:29;;;;;;;24.20;11.88;;;;;;;20.28;82.58;100644.66;8367059;28;20048;-58
2023/05/05 07:27:30;;;;;;;16.60;11.85;;;;;;;20.19;83.03;100651.34;8375460;28;20508;-58
2023/05/05 07:31:31;;;;;;;19.58;13.05;;;;;;;19.98;84.05;100648.59;8374509;28;20041;-58
2023/05/05 07:35:31;;;;;;;22.67;14.60;;;;;;;20.07;82.63;100641.94;8371770;28;20056;-59
2023/05/05 07:39:32;;;;;;;27.77;15.77;;;;;;;20.28;79.28;100641.91;8396490;28;20042;-59
2023/05/05 07:43:33;;;;;;;31.23;16.70;;;;;;;20.71;78.68;100636.06;8417564;28;20041;-59
2023/05/05 07:47:33;;;;;;;27.65;17.52;;;;;;;20.87;77.20;100651.38;8351352;28;20048;-59
2023/05/05 07:51:34;;;;;;;30.88;16.27;;;;;;;21.37;76.42;100647.38;8350864;28;20060;-59
2023/05/05 07:55:34;;;;;;;25.00;15.35;;;;;;;21.52;74.47;100640.63;8411655;28;20039;-59
2023/05/05 07:59:35;;;;;;;32.88;16.38;;;;;;;21.73;76.78;100642.38;8424080;28;20115;-58
2023/05/05 08:03:36;;;;;;;25.70;16.55;;;;;;;21.33;74.45;100636.81;8424907;28;20028;-57
2023/05/05 08:07:39;;;;;;;30.13;18.45;;;;;;;21.69;74.90;100641.97;8410634;28;20033;-57
2023/05/05 08:11:40;;;;;;;30.63;16.80;;;;;;;21.98;73.78;100641.59;8324071;28;20084;-57
2023/05/05 08:15:40;;;;;;;24.63;18.17;;;;;;;22.05;74.80;100652.59;8339928;28;20037;-57
2023/05/05 08:19:41;;;;;;;27.47;19.23;;;;;;;21.63;73.54;100637.28;8340963;28;20045;-57
2023/05/05 08:23:41;;;;;;;32.08;17.73;;;;;;;21.37;75.17;100642.72;8371355;28;20298;-57
2023/05/05 08:27:42;;;;;;;26.20;18.00;;;;;;;21.59;75.12;100636.00;8387843;28;20047;-57
2023/05/05 08:31:43;;;;;;;26.52;17.40;;;;;;;21.57;74.81;100635.38;8389320;28;20773;-58
2023/05/05 08:35:43;;;;;;;27.45;15.85;;;;;;;22.10;75.43;100634.38;8389263;28;20066;-57
2023/05/05 08:39:44;;;;;;;29.42;15.30;;;;;;;22.09;73.47;100640.97;8391992;28;20499;-57
2023/05/05 08:43:46;;;;;;;24.77;16.63;;;;;;;22.43;74.84;100637.97;8372632;28;20521;-57
2023/05/05 08:47:47;;;;;;;26.73;17.92;;;;;;;22.34;75.35;100642.00;8368773;28;20036;-57
2023/05/05 08:51:50;;;;;;;25.88;16.50;;;;;;;21.93;74.04;100648.78;8370313;28;20045;-57
2023/05/05 08:55:52;;;;;;;26.60;16.17;;;;;;;22.30;74.21;100635.22;8346361;28;20044;-60
2023/05/05 08:59:54;;;;;;;26.17;16.77;;;;;;;22.08;72.74;100630.97;8373318;28;20045;-59
2023/05/05 09:03:57;;;;;;;30.75;18.13;;;;;;;21.95;73.44;100643.91;8369996;28;20422;-59
2023/05/05 09:07:57;;;;;;;27.58;16.42;;;;;;;22.16;72.83;100643.69;8363337;28;20122;-59
2023/05/05 09:11:59;;;;;;;29.35;16.80;;;;;;;22.47;71.60;100636.47;8337798;28;20339;-59
2023/05/05 09:15:59;;;;;;;29.30;15.15;;;;;;;22.91;71.25;100644.84;8344812;28;20452;-59
2023/05/05 09:20:03;;;;;;;24.17;13.60;;;;;;;22.50;72.83;100638.81;8372671;28;20045;-59
2023/05/05 09:24:10;;;;;;;23.33;14.13;;;;;;;22.21;76.19;100636.50;8357861;28;20044;-59
2023/05/05 09:28:12;;;;;;;25.48;14.55;;;;;;;22.48;75.27;100629.88;8360921;28;20044;-59
2023/05/05 09:32:13;;;;;;;19.15;11.57;;;;;;;22.09;71.60;100632.69;8386213;28;20550;-59
2023/05/05 09:36:13;;;;;;;22.55;12.25;;;;;;;22.09;72.48;100646.47;8368372;28;20412;-59
2023/05/05 09:40:16;;;;;;;21.05;14.73;;;;;;;21.61;73.14;100647.66;8364505;28;20777;-59
2023/05/05 09:44:32;;;;;;;16.65;11.57;;;;;;;21.49;71.24;100641.06;8364388;28;20513;-59
2023/05/05 09:48:33;;;;;;;18.20;11.95;;;;;;;21.47;71.45;100634.91;8365608;28;20125;-59
2023/05/05 09:52:33;;;;;;;17.52;10.80;;;;;;;21.43;72.49;100630.88;8335623;28;20034;-59
2023/05/05 09:56:38;;;;;;;21.08;11.15;;;;;;;21.35;72.09;100628.34;8336922;28;20037;-58
2023/05/05 10:00:38;;;;;;;18.05;11.05;;;;;;;21.50;71.24;100631.72;8369240;28;20566;-58
2023/05/05 10:04:39;;;;;;;16.58;10.18;;;;;;;22.65;68.11;100625.66;8373911;28;20403;-58
2023/05/05 10:08:40;;;;;;;21.23;9.55;;;;;;;22.96;67.20;100623.00;8343488;28;20416;-60
2023/05/05 10:12:41;;;;;;;15.45;7.63;;;;;;;23.07;67.27;100616.81;8362658;28;20163;-56
2023/05/05 10:16:48;;;;;;;15.98;8.85;;;;;;;23.39;64.42;100609.44;8348914;28;20506;-56
2023/05/05 10:20:59;;;;;;;13.80;7.85;;;;;;;23.03;65.18;100598.97;8354147;28;20090;-56
2023/05/05 10:25:08;;;;;;;15.10;7.22;;;;;;;23.03;70.30;100598.97;8355072;28;20051;-56
2023/05/05 10:29:20;;;;;;;12.40;7.25;;;;;;;21.79;79.03;100603.03;8344593;28;20041;-56
2023/05/05 10:33:28;;;;;;;15.68;7.38;;;;;;;20.66;85.78;100619.34;8357644;28;20025;-58
2023/05/05 10:37:29;;;;;;;20.80;10.80;;;;;;;20.00;100.00;100643.78;8363661;28;20041;-58
2023/05/05 10:41:32;;;;;;;21.17;12.60;;;;;;;19.12;100.00;100630.38;8335684;28;20037;-58
2023/05/05 10:45:32;;;;;;;13.77;6.85;;;;;;;18.28;98.37;100630.03;8338896;28;20041;-58
2023/05/05 10:54:11;;;;;;;11.93;7.82;;;;;;;17.69;100.00;100644.63;8347698;27;20457;-60
2023/05/05 10:58:34;;;;;;;11.98;7.43;;;;;;;17.41;100.00;100627.00;8349853;28;20099;-59
2023/05/05 11:02:35;;;;;;;15.23;7.45;;;;;;;17.49;100.00;100627.00;8319156;28;20072;-59
2023/05/05 11:06:36;;;;;;;14.45;9.18;;;;;;;17.25;100.00;100646.25;8314147;28;20045;-59
2023/05/05 11:10:43;;;;;;;19.10;10.80;;;;;;;17.54;100.00;100687.47;8338461;28;20047;-59
2023/05/05 11:14:44;;;;;;;28.42;16.00;;;;;;;17.55;100.00;100683.69;8342309;28;20128;-60
2023/05/05 11:18:44;;;;;;;24.77;13.77;;;;;;;17.32;100.00;100639.03;8324030;28;20381;-60
2023/05/05 11:27:14;;;;;;;22.55;12.40;;;;;;;17.49;100.00;100640.66;8399505;27;20916;-59
2023/05/05 11:31:16;;;;;;;12.93;8.85;;;;;;;17.35;100.00;100633.19;8373383;27;20352;-59
2023/05/05 11:35:17;;;;;;;14.05;8.48;;;;;;;17.79;100.00;100622.47;8364202;28;20039;-59
2023/05/05 11:39:25;;;;;;;14.82;8.77;;;;;;;18.25;100.00;100622.19;8357766;28;20041;-59
2023/05/05 11:43:26;;;;;;;8.98;6.18;;;;;;;18.84;100.00;100618.44;8390894;27;20117;-59
2023/05/05 11:47:28;;;;;;;13.35;5.75;;;;;;;18.55;100.00;100599.31;8396311;27;20047;-59
2023/05/05 11:51:29;;;;;;;13.02;5.28;;;;;;;18.86;100.00;100610.88;8396077;27;20040;-58
2023/05/05 11:55:30;;;;;;;5.05;4.07;;;;;;;19.47;99.83;100609.50;8392411;27;20067;-60
2023/05/05 11:59:31;;;;;;;10.73;5.03;;;;;;;19.83;96.93;100612.16;8396607;27;20070;-60
2023/05/05 12:03:34;;;;;;;12.07;5.63;;;;;;;20.14;94.10;100615.41;8396961;27;20123;-61
2023/05/05 12:07:35;;;;;;;9.85;6.00;;;;;;;20.32;96.10;100621.22;8394960;28;20530;-60
2023/05/05 12:11:47;;;;;;;12.68;6.25;;;;;;;20.27;94.75;100616.34;8362866;28;20411;-61
2023/05/05 12:15:47;;;;;;;10.48;5.88;;;;;;;20.11;96.02;100613.88;8367909;28;20730;-61
2023/05/05 12:19:52;;;;;;;7.72;5.60;;;;;;;20.37;90.85;100596.78;8394763;27;20425;-61
2023/05/05 12:23:52;;;;;;;14.25;6.80;;;;;;;20.41;95.47;100595.31;8392770;27;20115;-60
2023/05/05 12:27:53;;;;;;;13.13;6.75;;;;;;;20.34;98.61;100586.19;8390207;27;20052;-60
2023/05/05 12:31:54;;;;;;;12.48;7.35;;;;;;;20.17;99.30;100582.91;8420356;27;20036;-56
2023/05/05 12:35:55;;;;;;;10.07;7.25;;;;;;;20.12;96.33;100590.00;8366195;27;20033;-57
2023/05/05 12:39:55;;;;;;;11.23;8.07;;;;;;;20.10;97.68;100581.13;8372093;28;20073;-56
2023/05/05 12:43:58;;;;;;;14.55;8.65;;;;;;;20.35;100.00;100586.00;8382609;28;20133;-57
2023/05/05 12:47:58;;;;;;;15.60;8.30;;;;;;;20.46;96.65;100585.41;8370009;28;20585;-57
2023/05/05 12:51:59;;;;;;;10.80;7.20;;;;;;;20.45;95.58;100585.59;8370828;28;20459;-57
2023/05/05 12:55:59;;;;;;;13.27;7.47;;;;;;;20.64;94.88;100591.22;8371131;28;20037;-57
2023/05/05 13:00:12;;;;;;;8.98;4.10;;;;;;;20.99;85.99;100590.16;8370650;28;20037;-57
2023/05/05 13:04:13;;;;;;;3.03;1.35;;;;;;;20.96;77.33;100596.06;8370781;28;20090;-56
2023/05/05 13:08:13;;;;;;;7.18;1.50;;;;;;;21.22;78.65;100582.38;8370061;28;20052;-56
2023/05/05 13:12:16;;;;;;;4.85;1.52;;;;;;;21.07;75.53;100580.84;8369853;28;20542;-57
2023/05/05 13:16:16;;;;;;;3.78;1.52;;;;;;;21.24;79.30;100585.78;8369544;28;20414;-57
2023/05/05 13:20:17;;;;;;;4.03;1.50;;;;;;;21.20;78.73;100586.41;8368058;28;20069;-57
2023/05/05 13:24:18;;;;;;;5.68;1.70;;;;;;;21.26;79.14;100577.31;8408031;28;20036;-57
2023/05/05 13:28:18;;;;;;;5.68;1.77;;;;;;;20.84;76.09;100569.31;8359862;28;20103;-57
2023/05/05 13:32:19;;;;;;;4.90;1.75;;;;;;;20.76;80.19;100561.25;8354935;28;20036;-57
2023/05/05 13:36:19;;;;;;;7.82;2.28;;;;;;;20.65;81.54;100548.09;8385914;28;20067;-56
2023/05/05 13:40:20;;;;;;;5.60;2.10;;;;;;;20.18;86.46;100548.03;8348813;28;20081;-59
2023/05/05 13:44:20;;;;;;;4.70;2.30;;;;;;;19.97;89.07;100537.94;8352180;28;20510;-59
2023/05/05 13:48:21;;;;;;;3.45;2.35;;;;;;;19.98;90.14;100527.84;8354309;28;20566;-59
2023/05/05 13:52:22;;;;;;;4.70;2.15;;;;;;;20.01;89.77;100532.91;8364914;28;20049;-59
2023/05/05 13:56:24;;;;;;;4.05;2.28;;;;;;;19.86;86.93;100529.44;8374970;28;20040;-59
2023/05/05 14:00:26;;;;;;;6.10;2.95;;;;;;;19.77;88.53;100547.09;8334339;28;20083;-59
2023/05/05 14:04:27;;;;;;;6.30;2.30;;;;;;;19.62;94.06;100543.59;8336041;28;20645;-59
2023/05/05 14:08:27;;;;;;;9.82;3.72;;;;;;;19.10;100.00;100544.78;8348728;28;20400;-59
2023/05/05 14:12:28;;;;;;;5.50;2.08;;;;;;;18.22;100.00;100531.41;8367157;28;20041;-60
2023/05/05 14:16:28;;;;;;;10.35;2.53;;;;;;;17.94;100.00;100538.56;8367350;28;20713;-60
2023/05/05 14:20:29;;;;;;;8.85;2.55;;;;;;;17.56;100.00;100535.00;8366931;28;20121;-60
2023/05/05 14:24:29;;;;;;;11.48;2.70;;;;;;;17.19;100.00;100518.56;8368378;28;20563;-60
2023/05/05 14:28:30;;;;;;;4.60;2.58;;;;;;;17.02;100.00;100571.63;8367571;28;20059;-60
2023/05/05 14:32:30;;;;;;;13.60;2.50;;;;;;;16.94;100.00;100626.28;8366497;28;20068;-59
2023/05/05 14:36:31;;;;;;;8.45;2.28;;;;;;;16.22;100.00;100616.47;8367753;28;20075;-60
2023/05/05 14:40:31;;;;;;;6.85;1.50;;;;;;;16.12;100.00;100579.50;8367708;28;20124;-60
2023/05/05 14:44:31;;;;;;;4.78;1.23;;;;;;;16.29;100.00;100565.66;8367479;28;20041;-60
2023/05/05 14:48:33;;;;;;;5.15;2.20;;;;;;;16.57;100.00;100563.34;8367082;28;20037;-57
2023/05/05 14:52:33;;;;;;;4.05;1.70;;;;;;;16.88;100.00;100564.19;8367551;28;20041;-57
2023/05/05 14:56:33;;;;;;;9.80;2.38;;;;;;;17.23;100.00;100571.81;8365343;28;20045;-56
2023/05/05 15:00:34;;;;;;;12.07;2.85;;;;;;;17.38;100.00;100576.31;8367343;28;20033;-57
2023/05/05 15:04:34;;;;;;;7.38;3.00;;;;;;;17.65;100.00;100571.34;8357224;28;20048;-57
2023/05/05 15:08:35;;;;;;;8.52;3.20;;;;;;;18.05;100.00;100574.50;8365731;28;20040;-57
2023/05/05 15:12:35;;;;;;;8.00;2.58;;;;;;;18.35;100.00;100576.22;8367121;28;20114;-59
2023/05/05 15:16:36;;;;;;;7.40;2.63;;;;;;;18.36;100.00;100574.34;8362529;28;20411;-60
2023/05/05 15:20:36;;;;;;;4.03;1.95;;;;;;;18.01;100.00;100566.84;8366764;28;20040;-59
2023/05/05 15:24:37;;;;;;;5.60;2.40;;;;;;;17.89;100.00;100558.28;8353838;28;20060;-59
2023/05/05 15:28:37;;;;;;;6.85;2.50;;;;;;;17.88;100.00;100563.94;8395048;28;20621;-59
2023/05/05 15:32:38;;;;;;;5.30;1.73;;;;;;;17.89;100.00;100573.81;8349085;28;20119;-59
2023/05/05 15:36:38;;;;;;;5.32;1.33;;;;;;;18.18;100.00;100572.00;8360805;28;20432;-59
2023/05/05 15:40:38;;;;;;;6.80;1.58;;;;;;;18.36;100.00;100560.66;8364974;28;20041;-59
2023/05/05 15:44:39;;;;;;;4.47;1.38;;;;;;;18.41;100.00;100553.59;8364704;28;20503;-59
2023/05/05 15:48:39;;;;;;;6.93;1.10;;;;;;;18.81;100.00;100552.19;8335951;28;20045;-59
2023/05/05 15:52:40;;;;;;;3.05;0.93;;;;;;;18.57;93.92;100556.13;8347626;28;20048;-60
2023/05/05 15:56:40;;;;;;;3.97;1.25;;;;;;;18.57;96.08;100547.91;8414460;28;20060;-59
2023/05/05 16:00:41;;;;;;;4.85;1.13;;;;;;;18.46;95.32;100540.19;8415231;28;20047;-59
2023/05/05 16:04:41;;;;;;;2.58;1.17;;;;;;;18.64;98.82;100546.13;8414283;28;20059;-59
2023/05/05 16:08:42;;;;;;;4.10;1.42;;;;;;;18.80;99.99;100545.03;8377622;28;20045;-59
2023/05/05 16:12:43;;;;;;;6.90;1.35;;;;;;;19.08;98.80;100544.09;8354909;28;20052;-59
2023/05/05 16:16:43;;;;;;;2.60;0.90;;;;;;;19.27;91.42;100540.75;8372006;28;20072;-59
2023/05/05 16:20:43;;;;;;;4.70;1.30;;;;;;;19.32;90.77;100548.38;8371962;28;20060;-59
2023/05/05 16:24:44;;;;;;;6.22;1.02;;;;;;;19.31;87.48;100547.53;8372927;28;20033;-59
2023/05/05 16:28:44;;;;;;;4.78;0.88;;;;;;;19.31;90.02;100543.94;8364390;28;20462;-59
2023/05/05 16:32:46;;;;;;;4.15;1.30;;;;;;;19.35;90.21;100548.84;8362626;28;20036;-59
2023/05/05 16:36:47;;;;;;;3.38;1.00;;;;;;;19.26;90.37;100544.53;8371447;28;20083;-59
2023/05/05 16:40:48;;;;;;;4.80;1.27;;;;;;;19.22;92.21;100547.84;8371812;28;20094;-57
2023/05/05 16:44:49;;;;;;;3.13;1.10;;;;;;;19.05;93.24;100539.00;8372277;28;20094;-58
2023/05/05 16:48:50;;;;;;;2.97;1.00;;;;;;;18.85;94.79;100539.84;8371977;28;20090;-57
2023/05/05 16:52:50;;;;;;;2.55;1.17;;;;;;;18.65;100.00;100545.06;8359936;28;20033;-59
2023/05/05 16:56:51;;;;;;;5.88;1.55;;;;;;;18.52;100.00;100549.53;8372866;28;20148;-58
2023/05/05 17:00:52;;;;;;;4.15;1.65;;;;;;;18.36;100.00;100544.25;8361279;28;20560;-58
2023/05/05 17:04:52;;;;;;;6.63;2.15;;;;;;;18.32;100.00;100538.28;8357865;28;20120;-58
2023/05/05 17:08:52;;;;;;;4.85;1.80;;;;;;;18.25;100.00;100542.81;8344714;28;20411;-58
2023/05/05 17:12:53;;;;;;;4.25;1.88;;;;;;;18.15;100.00;100542.25;8336462;28;20044;-58
2023/05/05 17:16:53;;;;;;;4.55;1.40;;;;;;;18.18;100.00;100549.25;8363604;28;20063;-58
2023/05/05 17:20:54;;;;;;;6.32;1.80;;;;;;;18.01;100.00;100556.78;8371360;28;20040;-58
2023/05/05 17:24:55;;;;;;;4.38;2.75;;;;;;;17.66;100.00;100562.09;8335630;28;20037;-58
2023/05/05 17:28:55;;;;;;;3.50;2.80;;;;;;;17.51;100.00;100586.66;8321444;28;20095;-58
2023/05/05 17:32:56;;;;;;;9.57;4.05;;;;;;;17.42;100.00;100598.66;8320713;28;20037;-58
2023/05/05 17:36:56;;;;;;;8.60;5.45;;;;;;;17.25;100.00;100575.19;8320938;28;20079;-58
2023/05/05 17:40:57;;;;;;;11.68;7.10;;;;;;;17.18;100.00;100579.72;8366617;28;20064;-58
2023/05/05 17:44:59;;;;;;;12.90;8.75;;;;;;;17.01;100.00;100578.97;8393257;28;20525;-58
2023/05/05 17:48:59;;;;;;;13.63;9.45;;;;;;;16.92;100.00;100590.09;8381360;28;20461;-58
2023/05/05 17:53:00;;;;;;;16.30;12.55;;;;;;;16.80;100.00;100608.78;8346282;28;20037;-58
2023/05/05 17:57:01;;;;;;;13.30;9.48;;;;;;;16.63;100.00;100614.50;8337707;28;20045;-58
2023/05/05 18:01:01;;;;;;;12.80;10.10;;;;;;;16.69;100.00;100627.44;8336638;28;20033;-58
2023/05/05 18:05:02;;;;;;;16.65;11.57;;;;;;;16.49;100.00;100634.31;8357887;28;20040;-57
2023/05/05 18:09:03;;;;;;;20.08;13.35;;;;;;;16.31;100.00;100639.97;8364618;28;20573;-57
2023/05/05 18:13:03;;;;;;;21.45;14.65;;;;;;;16.22;100.00;100638.28;8368377;28;20479;-57
2023/05/05 18:17:04;;;;;;;21.08;15.30;;;;;;;16.33;100.00;100637.94;8378328;28;20514;-58
2023/05/05 18:21:04;;;;;;;23.42;16.67;;;;;;;16.11;100.00;100627.75;8356316;28;20041;-57
2023/05/05 18:25:06;;;;;;;22.35;16.52;;;;;;;16.03;100.00;100629.63;8374750;28;20036;-57
2023/05/05 18:29:06;;;;;;;24.98;17.10;;;;;;;16.01;100.00;100626.25;8383650;28;20040;-57
2023/05/05 18:33:07;;;;;;;29.88;20.00;;;;;;;15.91;100.00;100631.00;8385760;28;20115;-58